sensor_id;sensor_type;location;lat;lon;timestamp;pressure;altitude;pressure_sealevel;temperature;humidity
47785;BME280;35233;55.686;37.848;2024-03-08T00:02:16;99804.47;;;19.24;28.74
47785;BME280;35233;55.686;37.848;2024-03-08T00:04:41;99809.53;;;19.29;28.81
47785;BME280;35233;55.686;37.848;2024-03-08T00:07:07;99801.97;;;19.21;28.52
47785;BME280;35233;55.686;37.848;2024-03-08T00:09:33;99799.88;;;19.26;28.66
47785;BME280;35233;55.686;37.848;2024-03-08T00:11:58;99801.59;;;19.27;28.59
47785;BME280;35233;55.686;37.848;2024-03-08T00:14:25;99790.41;;;19.20;28.36
47785;BME280;35233;55.686;37.848;2024-03-08T00:16:50;99785.13;;;19.19;28.45
47785;BME280;35233;55.686;37.848;2024-03-08T00:19:18;99784.66;;;19.27;28.45
47785;BME280;35233;55.686;37.848;2024-03-08T00:21:43;99783.50;;;19.31;28.54
47785;BME280;35233;55.686;37.848;2024-03-08T00:24:10;99788.97;;;19.29;28.38
47785;BME280;35233;55.686;37.848;2024-03-08T00:26:36;99772.41;;;19.22;28.44
47785;BME280;35233;55.686;37.848;2024-03-08T00:29:01;99775.78;;;19.26;28.22
47785;BME280;35233;55.686;37.848;2024-03-08T00:31:27;99780.75;;;19.32;28.31
47785;BME280;35233;55.686;37.848;2024-03-08T00:33:53;99760.94;;;19.20;28.25
47785;BME280;35233;55.686;37.848;2024-03-08T00:36:18;99767.53;;;19.29;28.15
47785;BME280;35233;55.686;37.848;2024-03-08T00:38:45;99753.38;;;19.27;28.15
47785;BME280;35233;55.686;37.848;2024-03-08T00:41:11;99757.56;;;19.31;28.31
47785;BME280;35233;55.686;37.848;2024-03-08T00:43:36;99753.94;;;19.32;28.39
47785;BME280;35233;55.686;37.848;2024-03-08T00:46:02;99742.47;;;19.30;28.12
47785;BME280;35233;55.686;37.848;2024-03-08T00:48:28;99738.06;;;19.29;28.08
47785;BME280;35233;55.686;37.848;2024-03-08T00:50:53;99736.53;;;19.25;28.13
47785;BME280;35233;55.686;37.848;2024-03-08T00:53:19;99738.16;;;19.28;28.14
47785;BME280;35233;55.686;37.848;2024-03-08T00:55:44;99725.06;;;19.23;28.08
47785;BME280;35233;55.686;37.848;2024-03-08T00:58:12;99732.72;;;19.29;28.25
47785;BME280;35233;55.686;37.848;2024-03-08T01:00:38;99728.28;;;19.28;28.13
47785;BME280;35233;55.686;37.848;2024-03-08T01:03:05;99719.31;;;19.29;28.01
47785;BME280;35233;55.686;37.848;2024-03-08T01:05:30;99708.03;;;19.24;28.03
47785;BME280;35233;55.686;37.848;2024-03-08T01:07:56;99727.38;;;19.29;27.93
47785;BME280;35233;55.686;37.848;2024-03-08T01:10:22;99715.69;;;19.30;27.76
47785;BME280;35233;55.686;37.848;2024-03-08T01:12:48;99724.75;;;19.28;27.74
47785;BME280;35233;55.686;37.848;2024-03-08T01:15:15;99724.56;;;19.31;27.79
47785;BME280;35233;55.686;37.848;2024-03-08T01:17:40;99720.25;;;19.28;27.88
47785;BME280;35233;55.686;37.848;2024-03-08T01:20:07;99717.38;;;19.31;27.96
47785;BME280;35233;55.686;37.848;2024-03-08T01:22:33;99722.75;;;19.31;27.97
47785;BME280;35233;55.686;37.848;2024-03-08T01:24:59;99721.81;;;19.32;27.96
47785;BME280;35233;55.686;37.848;2024-03-08T01:27:24;99704.78;;;19.33;27.79
47785;BME280;35233;55.686;37.848;2024-03-08T01:29:50;99712.03;;;19.31;27.76
47785;BME280;35233;55.686;37.848;2024-03-08T01:32:16;99708.50;;;19.31;28.01
47785;BME280;35233;55.686;37.848;2024-03-08T01:34:41;99709.56;;;19.28;27.60
47785;BME280;35233;55.686;37.848;2024-03-08T01:37:07;99707.66;;;19.30;28.03
47785;BME280;35233;55.686;37.848;2024-03-08T01:39:33;99702.41;;;19.29;27.72
47785;BME280;35233;55.686;37.848;2024-03-08T01:41:59;99686.22;;;19.30;27.91
47785;BME280;35233;55.686;37.848;2024-03-08T01:44:26;99684.69;;;19.26;27.76
47785;BME280;35233;55.686;37.848;2024-03-08T01:46:52;99690.72;;;19.30;27.79
47785;BME280;35233;55.686;37.848;2024-03-08T01:49:19;99697.91;;;19.29;27.79
47785;BME280;35233;55.686;37.848;2024-03-08T01:51:47;99698.19;;;19.25;27.73
47785;BME280;35233;55.686;37.848;2024-03-08T01:54:15;99691.78;;;19.27;27.86
47785;BME280;35233;55.686;37.848;2024-03-08T01:56:42;99686.34;;;19.29;27.40
47785;BME280;35233;55.686;37.848;2024-03-08T01:59:08;99704.78;;;19.33;27.53
47785;BME280;35233;55.686;37.848;2024-03-08T02:01:34;99712.16;;;19.30;27.74
47785;BME280;35233;55.686;37.848;2024-03-08T02:04:00;99696.34;;;19.25;27.54
47785;BME280;35233;55.686;37.848;2024-03-08T02:06:26;99689.75;;;19.31;27.59
47785;BME280;35233;55.686;37.848;2024-03-08T02:08:51;99682.75;;;19.28;27.68
47785;BME280;35233;55.686;37.848;2024-03-08T02:11:17;99678.28;;;19.29;27.49
47785;BME280;35233;55.686;37.848;2024-03-08T02:13:46;99681.72;;;19.31;27.42
47785;BME280;35233;55.686;37.848;2024-03-08T02:16:11;99675.50;;;19.30;27.59
47785;BME280;35233;55.686;37.848;2024-03-08T02:18:37;99674.72;;;19.28;27.65
47785;BME280;35233;55.686;37.848;2024-03-08T02:21:06;99669.28;;;19.30;27.58
47785;BME280;35233;55.686;37.848;2024-03-08T02:23:32;99659.72;;;19.26;27.43
47785;BME280;35233;55.686;37.848;2024-03-08T02:25:58;99662.38;;;19.26;27.67
47785;BME280;35233;55.686;37.848;2024-03-08T02:28:24;99656.19;;;19.25;27.62
47785;BME280;35233;55.686;37.848;2024-03-08T02:30:50;99661.53;;;19.25;27.52
47785;BME280;35233;55.686;37.848;2024-03-08T02:33:18;99666.16;;;19.23;27.53
47785;BME280;35233;55.686;37.848;2024-03-08T02:35:47;99667.94;;;19.22;27.49
47785;BME280;35233;55.686;37.848;2024-03-08T02:38:19;99642.31;;;19.18;27.45
47785;BME280;35233;55.686;37.848;2024-03-08T02:40:48;99657.34;;;19.21;27.51
47785;BME280;35233;55.686;37.848;2024-03-08T02:43:15;99657.53;;;19.18;27.47
47785;BME280;35233;55.686;37.848;2024-03-08T02:45:42;99655.84;;;19.17;27.57
47785;BME280;35233;55.686;37.848;2024-03-08T02:48:08;99650.75;;;19.12;27.30
47785;BME280;35233;55.686;37.848;2024-03-08T02:50:34;99646.16;;;19.14;27.45
47785;BME280;35233;55.686;37.848;2024-03-08T02:53:03;99651.63;;;19.13;27.47
47785;BME280;35233;55.686;37.848;2024-03-08T02:55:28;99638.69;;;19.19;27.47
47785;BME280;35233;55.686;37.848;2024-03-08T02:57:55;99639.56;;;19.20;27.29
47785;BME280;35233;55.686;37.848;2024-03-08T03:00:21;99646.16;;;19.14;27.29
47785;BME280;35233;55.686;37.848;2024-03-08T03:02:51;99644.63;;;19.10;27.32
47785;BME280;35233;55.686;37.848;2024-03-08T03:05:20;99632.88;;;19.13;27.38
47785;BME280;35233;55.686;37.848;2024-03-08T03:07:46;99641.00;;;19.11;27.28
47785;BME280;35233;55.686;37.848;2024-03-08T03:10:13;99626.00;;;19.09;27.04
47785;BME280;35233;55.686;37.848;2024-03-08T03:12:42;99617.66;;;19.13;27.13
47785;BME280;35233;55.686;37.848;2024-03-08T03:15:10;99614.31;;;19.10;27.17
47785;BME280;35233;55.686;37.848;2024-03-08T03:17:37;99613.16;;;19.14;27.13
47785;BME280;35233;55.686;37.848;2024-03-08T03:20:05;99606.03;;;19.00;26.99
47785;BME280;35233;55.686;37.848;2024-03-08T03:22:36;99620.66;;;19.09;26.96
47785;BME280;35233;55.686;37.848;2024-03-08T03:25:03;99611.00;;;19.06;27.09
47785;BME280;35233;55.686;37.848;2024-03-08T03:27:29;99617.28;;;19.05;27.21
47785;BME280;35233;55.686;37.848;2024-03-08T03:29:56;99600.69;;;19.00;27.23
47785;BME280;35233;55.686;37.848;2024-03-08T03:32:23;99605.19;;;18.99;27.02
47785;BME280;35233;55.686;37.848;2024-03-08T03:34:49;99602.31;;;19.03;26.93
47785;BME280;35233;55.686;37.848;2024-03-08T03:37:19;99580.19;;;18.99;26.99
47785;BME280;35233;55.686;37.848;2024-03-08T03:39:45;99595.97;;;19.04;27.06
47785;BME280;35233;55.686;37.848;2024-03-08T03:42:19;99583.56;;;19.03;27.07
47785;BME280;35233;55.686;37.848;2024-03-08T03:44:48;99578.22;;;19.03;26.86
47785;BME280;35233;55.686;37.848;2024-03-08T03:47:14;99581.81;;;19.02;26.80
47785;BME280;35233;55.686;37.848;2024-03-08T03:49:43;99590.34;;;19.08;26.93
47785;BME280;35233;55.686;37.848;2024-03-08T03:52:10;99591.00;;;19.12;26.98
47785;BME280;35233;55.686;37.848;2024-03-08T03:54:36;99585.16;;;19.05;26.83
47785;BME280;35233;55.686;37.848;2024-03-08T03:57:02;99582.66;;;19.02;26.75
47785;BME280;35233;55.686;37.848;2024-03-08T03:59:28;99580.00;;;19.02;26.89
47785;BME280;35233;55.686;37.848;2024-03-08T04:01:54;99583.38;;;19.06;26.86
47785;BME280;35233;55.686;37.848;2024-03-08T04:04:20;99582.78;;;19.00;26.97
47785;BME280;35233;55.686;37.848;2024-03-08T04:06:46;99592.13;;;19.08;26.68
47785;BME280;35233;55.686;37.848;2024-03-08T04:09:12;99585.34;;;19.02;26.82
47785;BME280;35233;55.686;37.848;2024-03-08T04:11:38;99583.75;;;18.99;26.74
47785;BME280;35233;55.686;37.848;2024-03-08T04:14:04;99588.03;;;19.02;26.50
47785;BME280;35233;55.686;37.848;2024-03-08T04:16:31;99582.66;;;19.02;26.98
47785;BME280;35233;55.686;37.848;2024-03-08T04:18:57;99582.66;;;19.02;26.33
47785;BME280;35233;55.686;37.848;2024-03-08T04:21:23;99576.97;;;18.94;26.65
47785;BME280;35233;55.686;37.848;2024-03-08T04:23:48;99576.47;;;19.02;26.73
47785;BME280;35233;55.686;37.848;2024-03-08T04:26:14;99571.97;;;19.02;26.55
47785;BME280;35233;55.686;37.848;2024-03-08T04:28:40;99577.44;;;19.00;26.95
47785;BME280;35233;55.686;37.848;2024-03-08T04:31:05;99578.22;;;19.03;26.49
47785;BME280;35233;55.686;37.848;2024-03-08T04:33:32;99573.91;;;19.00;26.55
47785;BME280;35233;55.686;37.848;2024-03-08T04:35:57;99569.97;;;19.06;26.76
47785;BME280;35233;55.686;37.848;2024-03-08T04:38:23;99574.28;;;19.08;26.55
47785;BME280;35233;55.686;37.848;2024-03-08T04:40:50;99572.44;;;19.09;26.57
47785;BME280;35233;55.686;37.848;2024-03-08T04:43:15;99577.13;;;19.05;26.56
47785;BME280;35233;55.686;37.848;2024-03-08T04:45:44;99575.00;;;19.10;26.35
47785;BME280;35233;55.686;37.848;2024-03-08T04:48:09;99574.16;;;19.10;26.49
47785;BME280;35233;55.686;37.848;2024-03-08T04:50:36;99567.94;;;19.09;26.47
47785;BME280;35233;55.686;37.848;2024-03-08T04:53:03;99564.78;;;19.17;26.51
47785;BME280;35233;55.686;37.848;2024-03-08T04:55:34;99567.47;;;19.17;26.40
47785;BME280;35233;55.686;37.848;2024-03-08T04:57:59;99557.69;;;19.16;26.51
47785;BME280;35233;55.686;37.848;2024-03-08T05:00:25;99554.44;;;19.11;26.44
47785;BME280;35233;55.686;37.848;2024-03-08T05:02:51;99558.00;;;19.11;26.68
47785;BME280;35233;55.686;37.848;2024-03-08T05:05:18;99566.91;;;19.12;26.48
47785;BME280;35233;55.686;37.848;2024-03-08T05:07:44;99556.38;;;19.09;26.28
47785;BME280;35233;55.686;37.848;2024-03-08T05:10:11;99565.94;;;19.13;26.26
47785;BME280;35233;55.686;37.848;2024-03-08T05:12:37;99561.53;;;19.12;26.26
47785;BME280;35233;55.686;37.848;2024-03-08T05:15:05;99545.47;;;19.12;26.43
47785;BME280;35233;55.686;37.848;2024-03-08T05:17:32;99547.84;;;19.16;26.46
47785;BME280;35233;55.686;37.848;2024-03-08T05:19:58;99550.31;;;19.19;26.45
47785;BME280;35233;55.686;37.848;2024-03-08T05:22:23;99549.66;;;19.16;26.28
47785;BME280;35233;55.686;37.848;2024-03-08T05:24:49;99548.03;;;19.13;26.40
47785;BME280;35233;55.686;37.848;2024-03-08T05:27:15;99545.28;;;19.15;26.21
47785;BME280;35233;55.686;37.848;2024-03-08T05:29:41;99545.47;;;19.12;26.51
47785;BME280;35233;55.686;37.848;2024-03-08T05:32:07;99551.41;;;19.17;26.49
47785;BME280;35233;55.686;37.848;2024-03-08T05:34:33;99549.44;;;19.19;26.30
47785;BME280;35233;55.686;37.848;2024-03-08T05:36:58;99534.56;;;19.15;26.38
47785;BME280;35233;55.686;37.848;2024-03-08T05:39:25;99532.44;;;19.20;26.24
47785;BME280;35233;55.686;37.848;2024-03-08T05:41:51;99547.06;;;19.29;26.19
47785;BME280;35233;55.686;37.848;2024-03-08T05:44:16;99544.25;;;19.30;26.20
47785;BME280;35233;55.686;37.848;2024-03-08T05:46:42;99539.97;;;19.28;26.23
47785;BME280;35233;55.686;37.848;2024-03-08T05:49:08;99548.75;;;19.30;26.20
47785;BME280;35233;55.686;37.848;2024-03-08T05:51:36;99546.63;;;19.35;26.19
47785;BME280;35233;55.686;37.848;2024-03-08T05:54:06;99543.63;;;19.39;26.14
47785;BME280;35233;55.686;37.848;2024-03-08T05:56:34;99546.22;;;19.41;26.47
47785;BME280;35233;55.686;37.848;2024-03-08T05:59:01;99546.22;;;19.41;26.23
47785;BME280;35233;55.686;37.848;2024-03-08T06:01:27;99537.53;;;19.37;26.27
47785;BME280;35233;55.686;37.848;2024-03-08T06:03:53;99545.47;;;19.39;26.20
47785;BME280;35233;55.686;37.848;2024-03-08T06:06:21;99547.94;;;19.42;26.26
47785;BME280;35233;55.686;37.848;2024-03-08T06:08:48;99533.78;;;19.40;26.56
47785;BME280;35233;55.686;37.848;2024-03-08T06:11:20;99525.53;;;19.43;26.55
47785;BME280;35233;55.686;37.848;2024-03-08T06:13:46;99538.94;;;19.43;26.40
47785;BME280;35233;55.686;37.848;2024-03-08T06:16:12;99534.88;;;19.37;26.64
47785;BME280;35233;55.686;37.848;2024-03-08T06:18:40;99539.06;;;19.41;26.56
47785;BME280;35233;55.686;37.848;2024-03-08T06:21:06;99538.19;;;19.41;26.70
47785;BME280;35233;55.686;37.848;2024-03-08T06:23:33;99541.53;;;19.44;26.56
47785;BME280;35233;55.686;37.848;2024-03-08T06:25:59;99524.16;;;19.37;26.43
47785;BME280;35233;55.686;37.848;2024-03-08T06:28:25;99524.16;;;19.37;26.65
47785;BME280;35233;55.686;37.848;2024-03-08T06:30:51;99529.84;;;19.45;26.80
47785;BME280;35233;55.686;37.848;2024-03-08T06:33:17;99528.47;;;19.53;26.71
47785;BME280;35233;55.686;37.848;2024-03-08T06:35:43;99523.53;;;19.47;26.99
47785;BME280;35233;55.686;37.848;2024-03-08T06:38:09;99526.75;;;19.52;26.66
47785;BME280;35233;55.686;37.848;2024-03-08T06:40:35;99540.91;;;19.54;26.79
47785;BME280;35233;55.686;37.848;2024-03-08T06:43:06;99540.81;;;19.55;26.60
47785;BME280;35233;55.686;37.848;2024-03-08T06:45:33;99518.91;;;19.49;26.63
47785;BME280;35233;55.686;37.848;2024-03-08T06:48:05;99538.34;;;19.52;26.92
47785;BME280;35233;55.686;37.848;2024-03-08T06:50:38;99531.81;;;19.56;27.07
47785;BME280;35233;55.686;37.848;2024-03-08T06:53:04;99522.91;;;19.56;26.58
47785;BME280;35233;55.686;37.848;2024-03-08T06:55:29;99534.41;;;19.58;26.71
47785;BME280;35233;55.686;37.848;2024-03-08T06:58:04;99538.41;;;19.65;26.64
47785;BME280;35233;55.686;37.848;2024-03-08T07:00:33;99534.91;;;19.63;26.53
47785;BME280;35233;55.686;37.848;2024-03-08T07:03:10;99521.19;;;19.55;26.52
47785;BME280;35233;55.686;37.848;2024-03-08T07:05:59;99533.59;;;19.70;26.73
47785;BME280;35233;55.686;37.848;2024-03-08T07:08:27;99520.28;;;19.68;26.79
47785;BME280;35233;55.686;37.848;2024-03-08T07:10:54;99533.25;;;19.75;26.81
47785;BME280;35233;55.686;37.848;2024-03-08T07:13:19;99530.28;;;19.79;26.60
47785;BME280;35233;55.686;37.848;2024-03-08T07:15:45;99540.56;;;19.85;26.59
47785;BME280;35233;55.686;37.848;2024-03-08T07:18:11;99533.16;;;19.76;26.27
47785;BME280;35233;55.686;37.848;2024-03-08T07:20:40;99543.13;;;19.74;26.68
47785;BME280;35233;55.686;37.848;2024-03-08T07:23:07;99543.69;;;19.79;26.31
47785;BME280;35233;55.686;37.848;2024-03-08T07:25:34;99534.16;;;19.75;26.35
47785;BME280;35233;55.686;37.848;2024-03-08T07:28:00;99543.78;;;19.78;26.37
47785;BME280;35233;55.686;37.848;2024-03-08T07:30:27;99533.16;;;19.76;26.58
47785;BME280;35233;55.686;37.848;2024-03-08T07:33:11;99532.53;;;19.85;26.36
47785;BME280;35233;55.686;37.848;2024-03-08T07:35:38;99536.63;;;19.78;26.41
47785;BME280;35233;55.686;37.848;2024-03-08T07:38:04;99534.78;;;19.79;26.47
47785;BME280;35233;55.686;37.848;2024-03-08T07:40:31;99541.00;;;19.79;26.42
47785;BME280;35233;55.686;37.848;2024-03-08T07:42:58;99530.06;;;19.82;26.22
47785;BME280;35233;55.686;37.848;2024-03-08T07:45:24;99530.06;;;19.82;26.54
47785;BME280;35233;55.686;37.848;2024-03-08T07:47:49;99526.53;;;19.82;25.99
47785;BME280;35233;55.686;37.848;2024-03-08T07:50:16;99519.78;;;19.76;26.50
47785;BME280;35233;55.686;37.848;2024-03-08T07:52:42;99527.19;;;19.85;26.34
47785;BME280;35233;55.686;37.848;2024-03-08T07:55:08;99512.56;;;19.89;26.53
47785;BME280;35233;55.686;37.848;2024-03-08T07:57:35;99512.56;;;19.89;26.34
47785;BME280;35233;55.686;37.848;2024-03-08T08:00:06;99504.03;;;19.84;26.30
47785;BME280;35233;55.686;37.848;2024-03-08T08:02:34;99517.63;;;19.94;26.14
47785;BME280;35233;55.686;37.848;2024-03-08T08:05:00;99511.84;;;20.00;25.97
47785;BME280;35233;55.686;37.848;2024-03-08T08:07:26;99511.41;;;19.94;26.01
47785;BME280;35233;55.686;37.848;2024-03-08T08:09:53;99511.22;;;19.97;25.97
47785;BME280;35233;55.686;37.848;2024-03-08T08:12:18;99524.72;;;19.95;26.18
47785;BME280;35233;55.686;37.848;2024-03-08T08:14:44;99512.06;;;19.97;26.29
47785;BME280;35233;55.686;37.848;2024-03-08T08:17:10;99513.47;;;20.03;25.90
47785;BME280;35233;55.686;37.848;2024-03-08T08:19:36;99516.56;;;19.97;26.10
47785;BME280;35233;55.686;37.848;2024-03-08T08:22:02;99516.16;;;20.03;26.07
47785;BME280;35233;55.686;37.848;2024-03-08T08:24:28;99510.69;;;20.04;25.99
47785;BME280;35233;55.686;37.848;2024-03-08T08:26:56;99514.66;;;20.11;25.90
47785;BME280;35233;55.686;37.848;2024-03-08T08:29:21;99515.81;;;20.20;26.07
47785;BME280;35233;55.686;37.848;2024-03-08T08:31:48;99512.91;;;20.36;25.94
47785;BME280;35233;55.686;37.848;2024-03-08T08:34:17;99506.50;;;20.26;25.79
47785;BME280;35233;55.686;37.848;2024-03-08T08:36:45;99498.97;;;20.31;25.69
47785;BME280;35233;55.686;37.848;2024-03-08T08:39:10;99499.06;;;20.29;25.83
47785;BME280;35233;55.686;37.848;2024-03-08T08:41:39;99501.75;;;20.29;25.84
47785;BME280;35233;55.686;37.848;2024-03-08T08:44:07;99496.59;;;20.26;25.89
47785;BME280;35233;55.686;37.848;2024-03-08T08:46:36;99510.66;;;20.30;25.88
47785;BME280;35233;55.686;37.848;2024-03-08T08:49:05;99504.78;;;20.25;25.87
47785;BME280;35233;55.686;37.848;2024-03-08T08:51:33;99505.09;;;20.20;26.13
47785;BME280;35233;55.686;37.848;2024-03-08T08:53:59;99493.81;;;20.15;25.87
47785;BME280;35233;55.686;37.848;2024-03-08T08:56:25;99503.03;;;20.24;25.78
47785;BME280;35233;55.686;37.848;2024-03-08T08:58:52;99514.56;;;20.13;25.77
47785;BME280;35233;55.686;37.848;2024-03-08T09:01:19;99520.31;;;20.07;25.95
47785;BME280;35233;55.686;37.848;2024-03-08T09:03:47;99508.00;;;20.04;26.18
47785;BME280;35233;55.686;37.848;2024-03-08T09:06:13;99506.59;;;20.11;26.19
47785;BME280;35233;55.686;37.848;2024-03-08T09:08:39;99508.31;;;20.12;26.10
47785;BME280;35233;55.686;37.848;2024-03-08T09:11:05;99497.91;;;20.21;26.11
47785;BME280;35233;55.686;37.848;2024-03-08T09:13:32;99499.09;;;20.17;25.99
47785;BME280;35233;55.686;37.848;2024-03-08T09:15:59;99487.38;;;20.18;25.78
47785;BME280;35233;55.686;37.848;2024-03-08T09:18:25;99491.38;;;20.25;25.89
47785;BME280;35233;55.686;37.848;2024-03-08T09:20:50;99483.28;;;20.38;25.64
47785;BME280;35233;55.686;37.848;2024-03-08T09:23:19;99479.22;;;20.32;25.74
47785;BME280;35233;55.686;37.848;2024-03-08T09:25:45;99479.09;;;20.46;25.76
47785;BME280;35233;55.686;37.848;2024-03-08T09:28:14;99480.47;;;20.52;25.70
47785;BME280;35233;55.686;37.848;2024-03-08T09:30:42;99476.41;;;20.46;25.64
47785;BME280;35233;55.686;37.848;2024-03-08T09:33:09;99481.69;;;20.48;25.56
47785;BME280;35233;55.686;37.848;2024-03-08T09:35:35;99476.19;;;20.49;25.85
47785;BME280;35233;55.686;37.848;2024-03-08T09:38:01;99470.19;;;20.58;25.84
47785;BME280;35233;55.686;37.848;2024-03-08T09:40:27;99476.75;;;20.54;25.49
47785;BME280;35233;55.686;37.848;2024-03-08T09:42:52;99472.53;;;20.50;25.79
47785;BME280;35233;55.686;37.848;2024-03-08T09:45:20;99480.06;;;20.58;25.60
47785;BME280;35233;55.686;37.848;2024-03-08T09:47:49;99465.25;;;20.52;25.60
47785;BME280;35233;55.686;37.848;2024-03-08T09:50:15;99482.44;;;20.63;25.50
47785;BME280;35233;55.686;37.848;2024-03-08T09:52:44;99482.00;;;20.56;26.13
47785;BME280;35233;55.686;37.848;2024-03-08T09:55:11;99479.00;;;20.61;26.43
47785;BME280;35233;55.686;37.848;2024-03-08T09:57:39;99475.31;;;20.62;27.19
47785;BME280;35233;55.686;37.848;2024-03-08T10:00:06;99478.59;;;20.54;27.36
47785;BME280;35233;55.686;37.848;2024-03-08T10:02:47;99479.00;;;20.48;27.46
47785;BME280;35233;55.686;37.848;2024-03-08T10:05:14;99472.13;;;20.44;27.39
47785;BME280;35233;55.686;37.848;2024-03-08T10:07:40;99479.53;;;20.40;27.57
47785;BME280;35233;55.686;37.848;2024-03-08T10:10:06;99480.28;;;20.42;27.41
47785;BME280;35233;55.686;37.848;2024-03-08T10:12:34;99468.25;;;20.48;27.20
47785;BME280;35233;55.686;37.848;2024-03-08T10:15:00;99479.19;;;20.45;27.39
47785;BME280;35233;55.686;37.848;2024-03-08T10:17:27;99482.97;;;20.42;27.63
47785;BME280;35233;55.686;37.848;2024-03-08T10:20:16;99472.66;;;20.36;27.76
47785;BME280;35233;55.686;37.848;2024-03-08T10:22:45;99476.63;;;20.43;27.61
47785;BME280;35233;55.686;37.848;2024-03-08T10:25:11;99470.41;;;20.43;28.14
47785;BME280;35233;55.686;37.848;2024-03-08T10:27:39;99453.25;;;20.45;28.29
47785;BME280;35233;55.686;37.848;2024-03-08T10:30:14;99468.25;;;20.48;27.93
47785;BME280;35233;55.686;37.848;2024-03-08T10:32:41;99453.25;;;20.45;28.62
47785;BME280;35233;55.686;37.848;2024-03-08T10:35:09;99471.91;;;20.47;28.25
47785;BME280;35233;55.686;37.848;2024-03-08T10:37:45;99466.97;;;20.53;28.30
47785;BME280;35233;55.686;37.848;2024-03-08T10:40:16;99461.06;;;20.48;28.26
47785;BME280;35233;55.686;37.848;2024-03-08T10:43:03;99470.94;;;20.48;28.62
47785;BME280;35233;55.686;37.848;2024-03-08T10:45:30;99461.06;;;20.48;28.36
47785;BME280;35233;55.686;37.848;2024-03-08T10:50:50;99467.09;;;20.39;28.32
47785;BME280;35233;55.686;37.848;2024-03-08T10:53:18;99459.25;;;20.36;28.18
47785;BME280;35233;55.686;37.848;2024-03-08T10:55:46;99461.28;;;20.32;28.46
47785;BME280;35233;55.686;37.848;2024-03-08T10:58:14;99470.84;;;20.37;28.04
47785;BME280;35233;55.686;37.848;2024-03-08T11:00:41;99462.06;;;20.34;28.44
47785;BME280;35233;55.686;37.848;2024-03-08T11:03:07;99469.97;;;20.36;28.16
47785;BME280;35233;55.686;37.848;2024-03-08T11:05:54;99472.56;;;20.38;28.56
47785;BME280;35233;55.686;37.848;2024-03-08T11:08:20;99465.91;;;20.43;28.26
47785;BME280;35233;55.686;37.848;2024-03-08T11:10:53;99464.59;;;20.49;28.15
47785;BME280;35233;55.686;37.848;2024-03-08T11:13:40;99464.28;;;20.53;28.50
47785;BME280;35233;55.686;37.848;2024-03-08T11:18:53;99462.03;;;20.60;28.31
47785;BME280;35233;55.686;37.848;2024-03-08T11:21:19;99463.97;;;20.58;28.43
47785;BME280;35233;55.686;37.848;2024-03-08T11:24:08;99464.59;;;20.62;28.12
47785;BME280;35233;55.686;37.848;2024-03-08T11:26:34;99454.06;;;20.58;28.50
47785;BME280;35233;55.686;37.848;2024-03-08T11:32:17;99462.34;;;20.55;28.48
47785;BME280;35233;55.686;37.848;2024-03-08T11:34:49;99459.09;;;20.50;28.63
47785;BME280;35233;55.686;37.848;2024-03-08T11:37:17;99455.16;;;20.56;28.21
47785;BME280;35233;55.686;37.848;2024-03-08T11:39:50;99455.81;;;20.60;28.41
47785;BME280;35233;55.686;37.848;2024-03-08T11:42:18;99451.59;;;20.68;28.29
47785;BME280;35233;55.686;37.848;2024-03-08T11:44:47;99443.41;;;20.70;27.97
47785;BME280;35233;55.686;37.848;2024-03-08T11:47:14;99445.56;;;20.65;28.01
47785;BME280;35233;55.686;37.848;2024-03-08T11:49:40;99442.78;;;20.66;28.00
47785;BME280;35233;55.686;37.848;2024-03-08T11:52:17;99440.56;;;20.60;27.74
47785;BME280;35233;55.686;37.848;2024-03-08T11:54:48;99433.91;;;20.53;27.83
47785;BME280;35233;55.686;37.848;2024-03-08T11:57:21;99455.59;;;20.63;28.02
47785;BME280;35233;55.686;37.848;2024-03-08T11:59:55;99442.88;;;20.65;28.08
47785;BME280;35233;55.686;37.848;2024-03-08T12:02:24;99448.16;;;20.66;27.83
47785;BME280;35233;55.686;37.848;2024-03-08T12:04:59;99452.03;;;20.62;27.90
47785;BME280;35233;55.686;37.848;2024-03-08T12:07:27;99455.91;;;20.58;27.74
47785;BME280;35233;55.686;37.848;2024-03-08T12:10:21;99455.16;;;20.43;27.55
47785;BME280;35233;55.686;37.848;2024-03-08T12:12:51;99458.16;;;20.39;27.51
47785;BME280;35233;55.686;37.848;2024-03-08T12:15:19;99461.59;;;20.41;27.49
47785;BME280;35233;55.686;37.848;2024-03-08T12:17:50;99455.38;;;20.53;27.06
47785;BME280;35233;55.686;37.848;2024-03-08T12:20:18;99449.56;;;20.46;27.13
47785;BME280;35233;55.686;37.848;2024-03-08T12:23:03;99451.63;;;20.43;27.45
47785;BME280;35233;55.686;37.848;2024-03-08T12:25:32;99459.69;;;20.43;27.03
47785;BME280;35233;55.686;37.848;2024-03-08T12:28:10;99461.38;;;20.44;27.21
47785;BME280;35233;55.686;37.848;2024-03-08T12:30:50;99460.94;;;20.50;27.13
47785;BME280;35233;55.686;37.848;2024-03-08T12:33:22;99452.47;;;20.56;27.02
47785;BME280;35233;55.686;37.848;2024-03-08T12:35:55;99460.31;;;20.46;27.09
47785;BME280;35233;55.686;37.848;2024-03-08T12:38:27;99466.13;;;20.40;27.15
47785;BME280;35233;55.686;37.848;2024-03-08T12:40:57;99457.53;;;20.35;27.02
47785;BME280;35233;55.686;37.848;2024-03-08T12:43:23;99460.63;;;20.42;27.06
47785;BME280;35233;55.686;37.848;2024-03-08T12:45:49;99454.19;;;20.44;26.94
47785;BME280;35233;55.686;37.848;2024-03-08T12:48:15;99459.78;;;20.41;27.09
47785;BME280;35233;55.686;37.848;2024-03-08T12:50:41;99458.16;;;20.39;26.85
47785;BME280;35233;55.686;37.848;2024-03-08T12:53:13;99451.19;;;20.36;26.65
47785;BME280;35233;55.686;37.848;2024-03-08T12:55:39;99438.94;;;20.45;26.83
47785;BME280;35233;55.686;37.848;2024-03-08T12:58:06;99434.47;;;20.45;26.73
47785;BME280;35233;55.686;37.848;2024-03-08T13:00:33;99458.16;;;20.39;26.76
47785;BME280;35233;55.686;37.848;2024-03-08T13:03:02;99474.41;;;20.37;26.66